sensor_id;sensor_type;location;lat;lon;timestamp;temperature;humidity
11744;DHT22;5929;51.906;7.674;2023-07-31T20:36:00;16.40;99.90
11744;DHT22;5929;51.906;7.674;2023-07-31T20:38:29;16.30;99.90
11744;DHT22;5929;51.906;7.674;2023-07-31T20:40:56;16.40;99.90
11744;DHT22;5929;51.906;7.674;2023-07-31T20:43:23;16.40;99.90
11744;DHT22;5929;51.906;7.674;2023-07-31T20:45:50;16.40;99.90
11744;DHT22;5929;51.906;7.674;2023-07-31T20:48:17;16.40;99.90
11744;DHT22;5929;51.906;7.674;2023-07-31T20:50:44;16.40;99.90
11744;DHT22;5929;51.906;7.674;2023-07-31T20:53:12;16.40;99.90
11744;DHT22;5929;51.906;7.674;2023-07-31T20:55:39;16.40;99.90
11744;DHT22;5929;51.906;7.674;2023-07-31T20:58:06;16.40;99.90
11744;DHT22;5929;51.906;7.674;2023-07-31T21:00:33;16.40;99.90
11744;DHT22;5929;51.906;7.674;2023-07-31T21:03:01;16.40;99.90
11744;DHT22;5929;51.906;7.674;2023-07-31T21:05:28;16.40;99.90
11744;DHT22;5929;51.906;7.674;2023-07-31T21:07:55;16.50;99.90
11744;DHT22;5929;51.906;7.674;2023-07-31T21:10:23;16.50;99.90
11744;DHT22;5929;51.906;7.674;2023-07-31T21:12:53;16.50;99.90
11744;DHT22;5929;51.906;7.674;2023-07-31T21:15:21;16.50;99.90
11744;DHT22;5929;51.906;7.674;2023-07-31T21:17:48;16.40;99.90
11744;DHT22;5929;51.906;7.674;2023-07-31T21:20:15;16.40;99.90
11744;DHT22;5929;51.906;7.674;2023-07-31T21:22:42;16.40;99.90
11744;DHT22;5929;51.906;7.674;2023-07-31T21:25:09;16.50;99.90
11744;DHT22;5929;51.906;7.674;2023-07-31T21:27:37;16.50;99.90
11744;DHT22;5929;51.906;7.674;2023-07-31T21:30:05;16.50;99.90
11744;DHT22;5929;51.906;7.674;2023-07-31T21:32:32;16.40;99.90
11744;DHT22;5929;51.906;7.674;2023-07-31T21:34:59;16.40;99.90
11744;DHT22;5929;51.906;7.674;2023-07-31T21:37:26;16.50;99.90
11744;DHT22;5929;51.906;7.674;2023-07-31T21:39:52;16.40;99.90
11744;DHT22;5929;51.906;7.674;2023-07-31T21:42:21;16.40;99.90
11744;DHT22;5929;51.906;7.674;2023-07-31T21:44:52;16.40;99.90
11744;DHT22;5929;51.906;7.674;2023-07-31T21:47:18;16.40;99.90
11744;DHT22;5929;51.906;7.674;2023-07-31T21:49:45;16.30;99.90
11744;DHT22;5929;51.906;7.674;2023-07-31T21:52:12;16.30;99.90
11744;DHT22;5929;51.906;7.674;2023-07-31T21:54:39;16.30;99.90
11744;DHT22;5929;51.906;7.674;2023-07-31T21:57:06;16.30;99.90
11744;DHT22;5929;51.906;7.674;2023-07-31T21:59:33;16.30;99.90
11744;DHT22;5929;51.906;7.674;2023-07-31T22:02:03;16.20;99.90
11744;DHT22;5929;51.906;7.674;2023-07-31T22:04:30;16.20;99.90
11744;DHT22;5929;51.906;7.674;2023-07-31T22:06:56;16.20;99.90
11744;DHT22;5929;51.906;7.674;2023-07-31T22:09:26;16.20;99.90
11744;DHT22;5929;51.906;7.674;2023-07-31T22:11:53;16.20;99.90
11744;DHT22;5929;51.906;7.674;2023-07-31T22:14:19;16.20;99.90
11744;DHT22;5929;51.906;7.674;2023-07-31T22:16:49;16.20;99.90
11744;DHT22;5929;51.906;7.674;2023-07-31T22:19:17;16.30;99.90
11744;DHT22;5929;51.906;7.674;2023-07-31T22:21:44;16.30;99.90
11744;DHT22;5929;51.906;7.674;2023-07-31T22:24:10;16.30;99.90
11744;DHT22;5929;51.906;7.674;2023-07-31T22:26:38;16.30;99.90
11744;DHT22;5929;51.906;7.674;2023-07-31T22:29:05;16.20;99.90
11744;DHT22;5929;51.906;7.674;2023-07-31T22:31:32;16.30;99.90
11744;DHT22;5929;51.906;7.674;2023-07-31T22:33:58;16.20;99.90
11744;DHT22;5929;51.906;7.674;2023-07-31T22:36:26;16.10;99.90
11744;DHT22;5929;51.906;7.674;2023-07-31T22:38:53;16.10;99.90
11744;DHT22;5929;51.906;7.674;2023-07-31T22:41:20;16.10;99.90
11744;DHT22;5929;51.906;7.674;2023-07-31T22:43:47;16.10;99.90
11744;DHT22;5929;51.906;7.674;2023-07-31T22:46:14;16.00;99.90
11744;DHT22;5929;51.906;7.674;2023-07-31T22:48:40;16.00;99.90
11744;DHT22;5929;51.906;7.674;2023-07-31T22:51:07;15.90;99.90
11744;DHT22;5929;51.906;7.674;2023-07-31T22:53:35;15.80;99.90
11744;DHT22;5929;51.906;7.674;2023-07-31T22:56:03;15.80;99.90
11744;DHT22;5929;51.906;7.674;2023-07-31T22:58:30;15.80;99.90
11744;DHT22;5929;51.906;7.674;2023-07-31T23:01:02;15.70;99.90
11744;DHT22;5929;51.906;7.674;2023-07-31T23:03:29;15.70;99.90
11744;DHT22;5929;51.906;7.674;2023-07-31T23:05:56;15.60;99.90
11744;DHT22;5929;51.906;7.674;2023-07-31T23:08:23;15.60;99.90
11744;DHT22;5929;51.906;7.674;2023-07-31T23:10:51;15.60;99.90
11744;DHT22;5929;51.906;7.674;2023-07-31T23:13:18;15.60;99.90
11744;DHT22;5929;51.906;7.674;2023-07-31T23:15:47;15.50;99.90
11744;DHT22;5929;51.906;7.674;2023-07-31T23:18:15;15.50;99.90
11744;DHT22;5929;51.906;7.674;2023-07-31T23:20:47;15.50;99.90
11744;DHT22;5929;51.906;7.674;2023-07-31T23:23:14;15.50;99.90
11744;DHT22;5929;51.906;7.674;2023-07-31T23:25:41;15.50;99.90
11744;DHT22;5929;51.906;7.674;2023-07-31T23:28:09;15.40;99.90
11744;DHT22;5929;51.906;7.674;2023-07-31T23:30:36;15.40;99.90
11744;DHT22;5929;51.906;7.674;2023-07-31T23:33:03;15.30;99.90
11744;DHT22;5929;51.906;7.674;2023-07-31T23:35:29;15.30;99.90
11744;DHT22;5929;51.906;7.674;2023-07-31T23:37:56;15.30;99.90
11744;DHT22;5929;51.906;7.674;2023-07-31T23:40:24;15.00;99.90
11744;DHT22;5929;51.906;7.674;2023-07-31T23:42:51;15.00;99.90
11744;DHT22;5929;51.906;7.674;2023-07-31T23:45:20;15.00;99.90
11744;DHT22;5929;51.906;7.674;2023-07-31T23:47:48;14.90;99.90
11744;DHT22;5929;51.906;7.674;2023-07-31T23:50:14;14.90;99.90
11744;DHT22;5929;51.906;7.674;2023-07-31T23:52:41;14.90;99.90
11744;DHT22;5929;51.906;7.674;2023-07-31T23:55:10;15.00;99.90
11744;DHT22;5929;51.906;7.674;2023-07-31T23:57:38;14.90;99.90
